North Albemarle, North Carolina
Current Conditions -  °F | °C
As of 11:35 AM on Tuesday 21 Oct 2014 (Local Time) from KVUJ Reporting Station
Clear Clear  
Wind Chill: 69°   Ceiling: Unl
Heat Index: 69°   Visibility: 10mi
Dew Point: 51°   Wind: 0mph
Humidity: 52%   Direction: NA
Pressure: 29.98"   Gusts: NA
Location:  35.3503°N, 80.2174°W
Report Text: KVUJ 211535Z AUTO 00000KT 10SM CLR 20/10 A2998 RMK AO2 LTG DSNT E T02040103
Loading
Personal Weather Stations






























Interactive Weather Map
Tropical Storm Tracking
New forecast layout! Learn more

10-Day Weather Forecast

Advertisements
Track Severe Weather on mobile